Scroll down
FLIGHT INFORMATION
Malaysia Airlines

MAS8686

Diverted

KSEA
 KSEA
[Original Destination: KSEA ]
DATE: 2018-11-12
GATE:  -
GATE DEPARTURE: 19:36
TAKEOFF: 19:39
DATE: 2018-11-13
GATE:  -
LANDING: 21:08
GATE ARRIVAL: 21:13
FLIGHT DATA
Crew: 
Speed: 
934 kph
Altitude: 
38,999 ft
Stage Length: 
1,107.0 km
Block Time: 
1.6 hrs
Flight Time: 
1.5 hrs
Fuel Used: 
15,977 kg
Cleared Route: 
TRACK DATA
50,000 ft 1,000 kts
AIRCRAFT INFO AND CUMULATIVE STATS
Aircraft Type: 
B744
Registration: 
SELCAL: 
CJDR
MSN/LN: 
27672 / 1091
Operator: 
Total Flights: 
8
Total Block Time: 
46.6 hrs
Total Flight Time: 
44 hrs
Total Fuel Used: 
539,122 kg
DATALINK LOG | Newest first | Current as of: 2022-09-27 07:44:11
LABEL SEQUENCE CONTENT Dn/Up
5U2544KSLC 122059Z 1221/1324 33007KT P6SM SKC FM130300 16006KT P6SM SKC FM131200 14005KT P6SM SKC FM131900 32007KT P6SM SKC▲ Up
5U2544KSEA 122105Z 1221/1324 07008KT P6SM BKN250 FM130700 12008KT P6SM SCT250 FM131800 17005KT P6SM SCT250▲ Up
5S0916KSEA KSLC▼ Dn
2U2445KSEA 122053Z VRB05KT 10SM BKN250 15/M03 A3039 RMK AO2 SLP296 T01501028 56005 $▲ Up
2U2445KSLC 122054Z 32007KT 10SM FEW060 04/M13 A3053 RMK AO2 SLP352 T00441128 56014 $▲ Up
2S0907KSEA KSLC▼ Dn


AIRCRAFT HISTORY
FLIGHT DATE FLIGHT NO. ORIGIN DESTINATION CLEARED ROUTE BLOCK TIME FLIGHT TIME FUEL USED PILOT
2018-11-12MAS8686KSEA KSEA 1.6 hrs1.5 hrs35,223 lbJhan Jensen
2018-11-11MAS166RJAA KSEA 9.2 hrs8.9 hrs201,004 lbJhan Jensen
2018-11-03MAS1WSSS RJAA IBIXU IBIVA DONDI DIVSA BTM DOGRA RUVIK HOSBA TOMAN VERIN LUSMO AKMON UDOSI ALDAS AGSAM ANOKI ARESI AKOTA AVMUP ALDIS ABVAR MEVIN MAGMA SADEK KAZIK AMMEK AZAMA TAMAK SHIBK YULIA NIKAI JERID MISAK BUNGU BAFFY CHEVY SYOYU ANGEL BINKS NR21C AF010 AF011 AF012 WEBBS NRE13 AF001 AF002 AF003 LAKES6.7 hrs6.5 hrs219,002 lbJhan Jensen
2018-10-27MAS172WMKK WSSS 0.9 hrs0.7 hrs21,258 lbJhan Jensen
2018-09-29MAS101PHNL WMKK 11.7 hrs11.4 hrs309,607 lbJhan Jensen
2018-09-03MAS100KSLC PHNL 5.9 hrs5.7 hrs131,351 lbJhan Jensen
2018-08-26MAS1EGLL KSLC 9.4 hrs9 hrs252,998 lbJhan Jensen
2018-08-25MAS999EGBP EGLL 1.1 hrs0.4 hrs18,117 lbJhan Jensen